createdAt,value
2022-10-21T00:04:31.171Z,2.67
2022-10-21T00:09:36.095Z,2.80
2022-10-21T00:14:39.630Z,2.90
2022-10-21T00:19:43.204Z,2.57
2022-10-21T00:24:48.856Z,3.40
2022-10-21T00:29:52.315Z,2.60
2022-10-21T00:34:56.157Z,3.00
2022-10-21T00:40:00.933Z,3.00
2022-10-21T00:45:18.209Z,2.70
2022-10-21T00:50:31.841Z,2.87
2022-10-21T00:55:40.069Z,2.80
2022-10-21T01:00:43.640Z,2.70
2022-10-21T01:05:47.388Z,2.50
2022-10-21T01:10:52.236Z,2.90
2022-10-21T01:16:08.937Z,2.97
2022-10-21T01:21:26.241Z,3.50
2022-10-21T01:27:04.572Z,3.17
2022-10-21T01:32:16.302Z,2.63
2022-10-21T01:37:25.978Z,3.53
2022-10-21T01:42:37.303Z,4.30
2022-10-21T01:47:47.771Z,4.47
2022-10-21T01:52:56.079Z,4.97
2022-10-21T01:58:03.661Z,4.40
2022-10-21T02:03:12.360Z,4.13
2022-10-21T02:08:16.031Z,4.83
2022-10-21T02:13:24.177Z,4.57
2022-10-21T02:18:28.943Z,4.73
2022-10-21T02:23:40.331Z,4.33
2022-10-21T02:28:44.622Z,4.70
2022-10-21T02:34:04.011Z,3.60
2022-10-21T02:39:12.881Z,4.40
2022-10-21T02:44:17.195Z,4.40
2022-10-21T02:49:22.024Z,5.37
2022-10-21T02:54:25.447Z,4.60
2022-10-21T02:59:28.823Z,3.87
2022-10-21T03:04:33.785Z,4.43
2022-10-21T03:09:37.240Z,3.97
2022-10-21T03:14:40.606Z,4.83
2022-10-21T03:19:45.378Z,4.50
2022-10-21T03:24:48.778Z,5.00
2022-10-21T03:29:52.297Z,4.80
2022-10-21T03:34:57.235Z,5.53
2022-10-21T03:40:00.622Z,4.70
2022-10-21T03:45:04.289Z,5.43
2022-10-21T03:50:13.972Z,4.27
2022-10-21T03:55:21.099Z,3.50
2022-10-21T04:00:27.130Z,5.57
2022-10-21T04:05:35.112Z,6.27
2022-10-21T04:10:38.512Z,6.20
2022-10-21T04:15:46.105Z,5.73
2022-10-21T04:20:51.298Z,6.73
2022-10-21T04:25:54.678Z,6.13
2022-10-21T04:31:00.333Z,6.10
2022-10-21T04:36:05.796Z,6.77
2022-10-21T04:41:09.343Z,5.90
2022-10-21T04:46:15.441Z,7.03
2022-10-21T04:51:20.358Z,7.10
2022-10-21T04:56:23.802Z,6.27
2022-10-21T05:01:27.470Z,6.40
2022-10-21T05:06:32.872Z,6.70
2022-10-21T05:11:36.342Z,5.80
2022-10-21T05:16:39.713Z,5.90
2022-10-21T05:21:46.531Z,7.10
2022-10-21T05:26:50.047Z,8.97
2022-10-21T05:31:53.528Z,7.93
2022-10-21T05:36:58.533Z,5.40
2022-10-21T05:42:02.205Z,4.10
2022-10-21T05:47:05.688Z,5.40
2022-10-21T05:52:10.459Z,5.03
2022-10-21T05:57:13.935Z,6.27
2022-10-21T06:02:17.316Z,4.53
2022-10-21T06:07:22.027Z,6.30
2022-10-21T06:12:25.559Z,6.00
2022-10-21T06:17:29.187Z,8.53
2022-10-21T06:22:33.998Z,7.83
2022-10-21T06:27:37.910Z,6.07
2022-10-21T06:32:41.465Z,6.80
2022-10-21T06:37:47.114Z,6.13
2022-10-21T06:42:51.377Z,8.10
2022-10-21T06:47:55.171Z,6.70
2022-10-21T06:53:00.616Z,8.20
2022-10-21T06:58:04.384Z,7.17
2022-10-21T07:03:08.147Z,7.60
2022-10-21T07:08:12.986Z,7.50
2022-10-21T07:13:16.504Z,8.90
2022-10-21T07:18:19.888Z,7.30
2022-10-21T07:23:24.671Z,6.90
2022-10-21T07:28:30.923Z,13.20
2022-10-21T07:33:35.920Z,7.17
2022-10-21T07:38:41.264Z,4.53
2022-10-21T07:43:44.773Z,4.07
2022-10-21T07:48:48.682Z,3.37
2022-10-21T07:53:55.915Z,3.10
2022-10-21T07:59:01.507Z,3.00
2022-10-21T08:04:05.463Z,3.00
2022-10-21T08:09:10.492Z,3.50
2022-10-21T08:14:14.042Z,3.20
2022-10-21T08:19:20.566Z,3.43
2022-10-21T08:24:43.700Z,3.90
2022-10-21T08:29:48.671Z,3.80
2022-10-21T08:34:52.606Z,4.30
2022-10-21T08:39:58.421Z,4.17
2022-10-21T08:45:07.099Z,3.40
2022-10-21T08:50:15.267Z,3.90
2022-10-21T08:55:24.269Z,3.47
2022-10-21T09:00:34.748Z,3.40
2022-10-21T09:06:14.380Z,3.00
2022-10-21T09:11:29.886Z,3.30
2022-10-21T09:16:44.274Z,3.40
2022-10-21T09:22:16.357Z,3.40
2022-10-21T09:27:32.381Z,4.07
2022-10-21T09:32:51.075Z,3.93
2022-10-21T09:37:57.558Z,3.87
2022-10-21T09:43:02.647Z,3.50
2022-10-21T09:48:13.809Z,4.07
2022-10-21T09:53:24.157Z,3.57
2022-10-21T09:58:46.414Z,2.90
2022-10-21T10:03:52.265Z,2.93
2022-10-21T10:09:08.028Z,2.37
2022-10-21T10:14:25.632Z,2.40
2022-10-21T10:19:30.077Z,2.37
2022-10-21T10:24:33.623Z,2.50
2022-10-21T10:29:39.026Z,2.20
2022-10-21T10:34:53.986Z,1.10
2022-10-21T10:40:02.352Z,1.20
2022-10-21T10:45:17.100Z,1.80
2022-10-21T10:50:44.199Z,1.13
2022-10-21T10:55:52.666Z,1.20
2022-10-21T11:01:02.476Z,0.90
2022-10-21T11:06:16.614Z,1.27
2022-10-21T11:11:26.068Z,1.00
2022-10-21T11:16:59.031Z,1.03
2022-10-21T11:22:14.638Z,1.10
2022-10-21T11:27:26.851Z,1.43
2022-10-21T11:32:45.286Z,1.43
2022-10-21T11:38:03.957Z,1.90
2022-10-21T11:43:20.640Z,0.90
2022-10-21T11:48:46.602Z,1.67
2022-10-21T11:54:08.490Z,1.37
2022-10-21T11:59:27.431Z,1.33
2022-10-21T12:04:39.930Z,1.30
2022-10-21T12:09:50.403Z,1.90
2022-10-21T12:14:58.770Z,1.00
2022-10-21T12:20:07.315Z,1.13
2022-10-21T12:25:24.111Z,0.67
2022-10-21T12:30:36.399Z,1.10
2022-10-21T12:35:50.800Z,0.87
2022-10-21T12:41:22.648Z,0.77
2022-10-21T12:46:28.914Z,1.00
2022-10-21T12:51:36.816Z,1.10
2022-10-21T12:56:46.420Z,1.13
2022-10-21T13:02:21.378Z,0.83
2022-10-21T13:07:38.119Z,1.13
2022-10-21T13:12:43.077Z,1.60
2022-10-21T13:17:53.446Z,1.37
2022-10-21T13:23:33.263Z,1.40
2022-10-21T13:28:37.027Z,0.80
2022-10-21T13:33:41.842Z,0.77
2022-10-21T13:38:53.641Z,0.70
2022-10-21T13:44:00.187Z,0.73
2022-10-21T13:49:04.776Z,1.00
2022-10-21T13:54:13.768Z,0.50
2022-10-21T13:59:25.550Z,0.60
2022-10-21T14:04:31.445Z,0.40
2022-10-21T14:09:41.649Z,0.70
2022-10-21T14:14:46.038Z,0.83
2022-10-21T14:19:53.033Z,0.70
2022-10-21T14:25:02.510Z,0.70
2022-10-21T14:30:10.225Z,0.90
2022-10-21T14:35:33.549Z,0.60
2022-10-21T14:40:40.823Z,0.60
2022-10-21T14:45:51.167Z,0.73
2022-10-21T14:51:00.016Z,0.83
2022-10-21T14:56:07.787Z,1.13
2022-10-21T15:01:15.615Z,0.70
2022-10-21T15:06:21.311Z,0.70
2022-10-21T15:11:35.952Z,0.77
2022-10-21T15:16:47.778Z,0.80
2022-10-21T15:21:55.397Z,0.87
2022-10-21T15:27:03.237Z,0.87
2022-10-21T15:32:07.589Z,0.70
2022-10-21T15:37:11.486Z,1.00
2022-10-21T15:42:24.004Z,0.83
2022-10-21T15:47:27.388Z,1.03
2022-10-21T15:52:30.944Z,0.60
2022-10-21T15:57:36.128Z,0.90
2022-10-21T16:02:41.846Z,0.70
2022-10-21T16:07:46.230Z,0.80
2022-10-21T16:12:53.359Z,2.10
2022-10-21T16:17:58.509Z,1.80
2022-10-21T16:23:03.191Z,2.70
2022-10-21T16:28:08.388Z,1.03
2022-10-21T16:33:12.197Z,0.60
2022-10-21T16:38:15.655Z,1.57
2022-10-21T16:43:20.681Z,1.30
2022-10-21T16:48:24.010Z,1.40
2022-10-21T16:53:29.290Z,6.70
2022-10-21T16:58:34.142Z,2.47
2022-10-21T17:03:37.608Z,1.97
2022-10-21T17:08:41.246Z,2.50
2022-10-21T17:13:46.868Z,2.00
2022-10-21T17:18:50.623Z,2.50
2022-10-21T17:23:55.610Z,7.27
2022-10-21T17:29:00.890Z,6.57
2022-10-21T17:34:08.528Z,4.43
2022-10-21T17:39:12.868Z,2.50
2022-10-21T17:44:18.358Z,2.00
2022-10-21T17:49:21.903Z,2.80
2022-10-21T17:54:28.543Z,6.00
2022-10-21T17:59:34.972Z,14.23
2022-10-21T18:04:38.951Z,16.17
2022-10-21T18:09:42.656Z,10.03
2022-10-21T18:14:47.525Z,4.20
2022-10-21T18:19:52.603Z,2.30
2022-10-21T18:24:56.367Z,1.50
2022-10-21T18:30:01.663Z,1.80
2022-10-21T18:35:05.830Z,1.60
2022-10-21T18:40:11.190Z,1.23
2022-10-21T18:45:17.078Z,0.90
2022-10-21T18:50:20.992Z,1.10
2022-10-21T18:55:26.005Z,1.40
2022-10-21T19:00:33.675Z,0.70
2022-10-21T19:05:37.284Z,2.27
2022-10-21T19:10:57.426Z,3.00
2022-10-21T19:16:08.274Z,2.70
2022-10-21T19:21:14.690Z,1.50
2022-10-21T19:26:22.277Z,1.50
2022-10-21T19:31:34.727Z,1.33
2022-10-21T19:36:41.250Z,1.10
2022-10-21T19:41:45.387Z,2.33
2022-10-21T19:46:51.020Z,0.90
2022-10-21T19:51:56.318Z,1.80
2022-10-21T19:57:01.990Z,1.10
2022-10-21T20:02:08.979Z,1.00
2022-10-21T20:07:15.966Z,0.93
2022-10-21T20:12:20.350Z,1.00
2022-10-21T20:17:28.377Z,1.33
2022-10-21T20:22:32.325Z,2.10
2022-10-21T20:27:38.600Z,1.27
2022-10-21T20:32:44.420Z,1.47
2022-10-21T20:37:48.174Z,1.30
2022-10-21T20:42:52.502Z,1.60
2022-10-21T20:47:58.165Z,1.73
2022-10-21T20:53:02.143Z,1.57
2022-10-21T20:58:06.717Z,2.30
2022-10-21T21:03:14.675Z,1.50
2022-10-21T21:08:27.592Z,1.30
2022-10-21T21:13:31.741Z,1.23
2022-10-21T21:18:37.485Z,1.80
2022-10-21T21:23:42.940Z,1.47
2022-10-21T21:28:48.018Z,1.50
2022-10-21T21:33:55.900Z,1.63
2022-10-21T21:38:59.997Z,1.20
2022-10-21T21:44:05.550Z,1.50
2022-10-21T21:49:11.608Z,1.10
2022-10-21T21:54:15.573Z,1.37
2022-10-21T21:59:19.073Z,1.40
2022-10-21T22:04:24.380Z,1.13
2022-10-21T22:09:27.731Z,1.20
2022-10-21T22:14:31.114Z,3.87
2022-10-21T22:19:36.210Z,3.00
2022-10-21T22:24:39.699Z,3.30
2022-10-21T22:29:42.957Z,2.70
2022-10-21T22:34:47.799Z,1.30
2022-10-21T22:39:52.761Z,1.37
2022-10-21T22:44:56.520Z,1.87
2022-10-21T22:50:01.396Z,1.97
2022-10-21T22:55:06.269Z,3.17
2022-10-21T23:00:10.609Z,1.83
2022-10-21T23:05:15.658Z,1.83
2022-10-21T23:10:19.114Z,1.60
2022-10-21T23:15:22.479Z,1.60
2022-10-21T23:20:27.284Z,1.57
2022-10-21T23:25:31.156Z,1.93
2022-10-21T23:30:34.722Z,1.33
2022-10-21T23:35:39.496Z,2.10
2022-10-21T23:40:43.033Z,2.00
2022-10-21T23:45:46.354Z,1.43
2022-10-21T23:50:51.349Z,1.37
2022-10-21T23:55:54.638Z,1.17
